createdAt,value
2018-11-04T00:03:43.940Z,15.4
2018-11-04T00:08:41.695Z,15.4
2018-11-04T00:13:39.484Z,15.4
2018-11-04T00:18:37.430Z,15.3
2018-11-04T00:23:35.495Z,15.3
2018-11-04T00:28:33.046Z,15.3
2018-11-04T00:33:31.066Z,15.2
2018-11-04T00:38:28.676Z,15.2
2018-11-04T00:43:26.921Z,15.1
2018-11-04T00:48:24.024Z,15.1
2018-11-04T00:53:21.874Z,15
2018-11-04T00:58:19.601Z,15
2018-11-04T01:03:17.529Z,14.9
2018-11-04T01:08:15.434Z,14.9
2018-11-04T01:13:13.252Z,14.9
2018-11-04T01:18:11.112Z,14.8
2018-11-04T01:23:09.037Z,14.8
2018-11-04T01:28:07.167Z,14.7
2018-11-04T01:33:05.541Z,14.7
2018-11-04T01:38:03.906Z,14.7
2018-11-04T01:43:01.608Z,14.6
2018-11-04T01:47:59.878Z,14.6
2018-11-04T01:52:57.954Z,14.6
2018-11-04T01:57:56.268Z,14.5
2018-11-04T02:02:54.543Z,14.5
2018-11-04T02:07:52.361Z,14.4
2018-11-04T02:12:50.793Z,14.4
2018-11-04T02:17:49.080Z,14.3
2018-11-04T02:22:47.272Z,14.3
2018-11-04T02:27:45.159Z,14.3
2018-11-04T02:32:43.290Z,14.2
2018-11-04T02:37:41.505Z,14.2
2018-11-04T02:42:39.209Z,14.1
2018-11-04T02:47:37.520Z,14.1
2018-11-04T02:52:35.272Z,14
2018-11-04T02:57:33.076Z,14
2018-11-04T03:02:30.872Z,14
2018-11-04T03:07:29.316Z,13.9
2018-11-04T03:12:27.649Z,13.9
2018-11-04T03:17:25.822Z,13.8
2018-11-04T03:22:23.955Z,13.8
2018-11-04T03:27:21.719Z,13.8
2018-11-04T03:32:19.483Z,13.6
2018-11-04T03:37:17.650Z,13.7
2018-11-04T03:42:15.808Z,13.6
2018-11-04T03:47:14.029Z,13.6
2018-11-04T03:52:12.245Z,13.6
2018-11-04T03:57:10.426Z,13.5
2018-11-04T04:02:08.184Z,13.5
2018-11-04T04:07:06.235Z,13.4
2018-11-04T04:12:04.601Z,13.4
2018-11-04T04:17:02.481Z,13.4
2018-11-04T04:22:00.306Z,12.9
2018-11-04T04:26:58.214Z,12.8
2018-11-04T04:31:56.095Z,12.8
2018-11-04T04:36:54.252Z,13.2
2018-11-04T04:41:52.129Z,12.7
2018-11-04T04:46:49.540Z,12.8
2018-11-04T04:51:47.727Z,13.1
2018-11-04T04:56:45.737Z,13.1
2018-11-04T05:01:43.893Z,13
2018-11-04T05:06:42.105Z,12.4
2018-11-04T05:11:40.277Z,12.5
2018-11-04T05:16:38.524Z,12.5
2018-11-04T05:21:36.436Z,12.4
2018-11-04T05:26:34.518Z,12.4
2018-11-04T05:31:32.169Z,12.8
2018-11-04T05:36:29.872Z,12.3
2018-11-04T05:41:28.012Z,12.2
2018-11-04T05:46:25.748Z,12.2
2018-11-04T05:51:23.801Z,12.6
2018-11-04T05:56:22.107Z,12.2
2018-11-04T06:01:20.413Z,12.2
2018-11-04T06:06:18.225Z,12.1
2018-11-04T06:11:16.350Z,12.1
2018-11-04T06:16:14.486Z,12.1
2018-11-04T06:21:12.607Z,12
2018-11-04T06:26:10.468Z,12.4
2018-11-04T06:31:08.639Z,11.9
2018-11-04T06:36:07.026Z,12.1
2018-11-04T06:41:05.379Z,11.9
2018-11-04T06:46:03.828Z,11.9
2018-11-04T06:51:02.147Z,11.9
2018-11-04T06:56:00.414Z,11.8
2018-11-04T07:00:58.742Z,12.3
2018-11-04T07:05:56.978Z,11.8
2018-11-04T07:10:54.711Z,11.8
2018-11-04T07:15:52.837Z,11.8
2018-11-04T07:20:51.264Z,11.8
2018-11-04T07:25:49.369Z,11.7
2018-11-04T07:30:47.742Z,11.7
2018-11-04T07:35:46.258Z,11.7
2018-11-04T07:40:44.181Z,11.7
2018-11-04T07:45:42.378Z,11.7
2018-11-04T07:50:40.136Z,11.6
2018-11-04T07:55:38.525Z,11.7
2018-11-04T08:00:36.610Z,11.6
2018-11-04T08:05:34.944Z,11.6
2018-11-04T08:10:33.411Z,11.6
2018-11-04T08:15:31.801Z,11.6
2018-11-04T08:20:30.257Z,12
2018-11-04T08:25:28.553Z,11.6
2018-11-04T08:30:26.896Z,11.6
2018-11-04T08:35:24.758Z,11.6
2018-11-04T08:40:23.636Z,11.6
2018-11-04T08:45:22.623Z,12.1
2018-11-04T08:50:20.688Z,11.6
2018-11-04T08:55:19.104Z,11.7
2018-11-04T09:00:17.203Z,12.1
2018-11-04T09:05:15.547Z,11.7
2018-11-04T09:10:13.795Z,11.7
2018-11-04T09:15:11.921Z,11.7
2018-11-04T09:20:10.298Z,11.8
2018-11-04T09:25:08.866Z,11.8
2018-11-04T09:30:07.180Z,11.8
2018-11-04T09:35:05.811Z,11.9
2018-11-04T09:40:04.572Z,12.3
2018-11-04T09:45:03.001Z,11.9
2018-11-04T09:50:01.276Z,11.9
2018-11-04T09:54:59.429Z,12.2
2018-11-04T09:59:57.737Z,12
2018-11-04T10:04:55.968Z,12
2018-11-04T10:09:54.304Z,12
2018-11-04T10:14:52.335Z,12
2018-11-04T10:19:50.832Z,12.1
2018-11-04T10:24:49.270Z,12.1
2018-11-04T10:29:47.189Z,12.2
2018-11-04T10:34:45.460Z,12.2
2018-11-04T10:39:44.089Z,12.2
2018-11-04T10:44:42.716Z,12.3
2018-11-04T10:49:41.003Z,12.4
2018-11-04T10:54:38.547Z,12.4
2018-11-04T10:59:37.012Z,12.5
2018-11-04T11:04:35.360Z,13
2018-11-04T11:09:33.993Z,13
2018-11-04T11:14:32.255Z,12.6
2018-11-04T11:19:30.801Z,12.7
2018-11-04T11:24:28.707Z,12.8
2018-11-04T11:29:26.611Z,12.8
2018-11-04T11:34:24.528Z,12.9
2018-11-04T11:39:22.540Z,12.9
2018-11-04T11:44:20.657Z,13
2018-11-04T11:49:18.846Z,13.5
2018-11-04T11:54:16.904Z,13.1
2018-11-04T11:59:14.826Z,13.2
2018-11-04T12:04:12.629Z,13.2
2018-11-04T12:09:11.122Z,13.3
2018-11-04T12:14:09.337Z,13.8
2018-11-04T12:19:07.290Z,13.3
2018-11-04T12:24:05.553Z,13.4
2018-11-04T12:29:03.574Z,13.5
2018-11-04T12:34:02.214Z,13.6
2018-11-04T12:39:00.603Z,13.6
2018-11-04T12:43:58.724Z,14.1
2018-11-04T12:48:56.622Z,13.8
2018-11-04T12:53:55.038Z,14.3
2018-11-04T12:58:52.992Z,13.9
2018-11-04T13:03:51.407Z,14.4
2018-11-04T13:08:49.685Z,14
2018-11-04T13:13:48.094Z,14.5
2018-11-04T13:18:46.489Z,14.5
2018-11-04T13:23:45.101Z,14.6
2018-11-04T13:28:42.715Z,14.2
2018-11-04T13:33:40.808Z,14.2
2018-11-04T13:38:39.424Z,14.6
2018-11-04T13:43:37.902Z,14.8
2018-11-04T13:48:36.221Z,14.8
2018-11-04T13:53:34.652Z,14.9
2018-11-04T13:58:32.900Z,14.9
2018-11-04T14:03:31.280Z,14.9
2018-11-04T14:08:29.726Z,14.9
2018-11-04T14:13:28.002Z,15
2018-11-04T14:18:26.287Z,14.7
2018-11-04T14:23:24.296Z,14.7
2018-11-04T14:28:22.679Z,15.2
2018-11-04T14:33:21.178Z,15.2
2018-11-04T14:38:19.162Z,15.2
2018-11-04T14:43:17.179Z,15.3
2018-11-04T14:48:15.212Z,15.3
2018-11-04T14:53:13.121Z,15.3
2018-11-04T14:58:11.522Z,15.3
2018-11-04T15:03:09.289Z,15.4
2018-11-04T15:08:07.650Z,15.4
2018-11-04T15:13:05.679Z,15.4
2018-11-04T15:18:03.400Z,15.3
2018-11-04T15:23:01.772Z,15.4
2018-11-04T15:27:59.476Z,15.4
2018-11-04T15:32:56.972Z,15.1
2018-11-04T15:37:55.352Z,15.4
2018-11-04T15:42:53.704Z,15.5
2018-11-04T15:47:51.383Z,15.5
2018-11-04T15:52:49.421Z,15.5
2018-11-04T15:57:47.406Z,15.5
2018-11-04T16:02:45.897Z,15.3
2018-11-04T16:07:44.557Z,15.5
2018-11-04T16:12:42.945Z,15.5
2018-11-04T16:17:40.687Z,15.5
2018-11-04T16:22:39.070Z,15.5
2018-11-04T16:27:37.403Z,15.5
2018-11-04T16:32:35.097Z,15.4
2018-11-04T16:37:33.900Z,15.4
2018-11-04T16:42:31.671Z,15.4
2018-11-04T16:47:29.723Z,15.4
2018-11-04T16:52:28.050Z,15.4
2018-11-04T16:57:26.032Z,15.4
2018-11-04T17:02:24.331Z,15.4
2018-11-04T17:07:22.647Z,15.4
2018-11-04T17:12:20.634Z,15.3
2018-11-04T17:17:18.559Z,15.3
2018-11-04T17:22:16.556Z,15.3
2018-11-04T17:27:14.955Z,15.3
2018-11-04T17:32:13.192Z,15.3
2018-11-04T17:37:11.053Z,15.3
2018-11-04T17:42:09.049Z,15.2
2018-11-04T17:47:06.469Z,15.2
2018-11-04T17:52:04.462Z,15.2
2018-11-04T17:57:02.278Z,15.1
2018-11-04T18:02:00.183Z,15.1
2018-11-04T18:06:58.263Z,15.1
2018-11-04T18:11:56.644Z,15.1
2018-11-04T18:16:54.789Z,15
2018-11-04T18:21:52.740Z,15
2018-11-04T18:26:50.880Z,15
2018-11-04T18:31:49.573Z,14.9
2018-11-04T18:36:47.750Z,14.9
2018-11-04T18:41:45.792Z,14.9
2018-11-04T18:46:43.798Z,14.9
2018-11-04T18:51:42.161Z,14.9
2018-11-04T18:56:40.061Z,14.8
2018-11-04T19:01:38.194Z,14.8
2018-11-04T19:06:36.039Z,14.7
2018-11-04T19:11:34.189Z,14.7
2018-11-04T19:16:32.084Z,14.7
2018-11-04T19:21:30.117Z,14.7
2018-11-04T19:26:27.322Z,14.6
2018-11-04T19:31:25.675Z,14.6
2018-11-04T19:36:23.801Z,14.6
2018-11-04T19:41:22.273Z,14.5
2018-11-04T19:46:20.130Z,14.5
2018-11-04T19:51:18.627Z,14.5
2018-11-04T19:56:16.150Z,14.4
2018-11-04T20:01:14.235Z,14.3
2018-11-04T20:06:12.493Z,14.4
2018-11-04T20:11:11.120Z,14.3
2018-11-04T20:16:09.259Z,14.3
2018-11-04T20:21:07.010Z,14.3
2018-11-04T20:26:05.305Z,14.3
2018-11-04T20:31:03.298Z,14.2
2018-11-04T20:36:01.531Z,14.2
2018-11-04T20:40:59.880Z,14.2
2018-11-04T20:45:58.238Z,14.1
2018-11-04T20:50:56.515Z,14.1
2018-11-04T20:55:54.765Z,14.1
2018-11-04T21:00:53.113Z,14
2018-11-04T21:05:51.527Z,13.8
2018-11-04T21:10:49.864Z,13.9
2018-11-04T21:15:47.501Z,13.9
2018-11-04T21:20:45.651Z,13.5
2018-11-04T21:25:43.535Z,13.8
2018-11-04T21:30:42.168Z,13.8
2018-11-04T21:35:40.100Z,13.8
2018-11-04T21:40:38.439Z,13.7
2018-11-04T21:45:36.728Z,13.7
2018-11-04T21:50:35.082Z,13.7
2018-11-04T21:55:33.559Z,13.6
2018-11-04T22:00:31.944Z,13.2
2018-11-04T22:05:29.523Z,13.6
2018-11-04T22:10:27.559Z,13.5
2018-11-04T22:15:25.989Z,13.5
2018-11-04T22:20:24.238Z,13.5
2018-11-04T22:25:22.095Z,13.4
2018-11-04T22:30:21.010Z,13.4
2018-11-04T22:35:18.654Z,13.4
2018-11-04T22:40:16.868Z,13.4
2018-11-04T22:45:15.141Z,13.3
2018-11-04T22:50:12.945Z,13.3
2018-11-04T22:55:11.327Z,13.3
2018-11-04T23:00:09.600Z,13.2
2018-11-04T23:05:07.521Z,13.2
2018-11-04T23:10:05.794Z,13.2
2018-11-04T23:15:03.482Z,12.7
2018-11-04T23:20:01.643Z,13.1
2018-11-04T23:24:59.977Z,13.1
2018-11-04T23:29:58.131Z,13.1
2018-11-04T23:34:56.321Z,13
2018-11-04T23:39:54.113Z,13
2018-11-04T23:44:52.537Z,13
2018-11-04T23:49:51.559Z,12.5
2018-11-04T23:54:49.839Z,12.9
2018-11-04T23:59:48.592Z,12.5
